createdAt,value
2018-08-03T00:02:03.197Z,100426.81
2018-08-03T00:04:29.247Z,100418.69
2018-08-03T00:06:55.841Z,100419.28
2018-08-03T00:09:21.890Z,100416.93
2018-08-03T00:11:47.949Z,100415.18
2018-08-03T00:14:13.947Z,100410.52
2018-08-03T00:16:39.966Z,100410.06
2018-08-03T00:19:05.950Z,100409.93
2018-08-03T00:21:32.024Z,100414.59
2018-08-03T00:23:58.066Z,100416.84
2018-08-03T00:26:24.126Z,100411.00
2018-08-03T00:28:50.152Z,100418.80
2018-08-03T00:31:16.165Z,100415.16
2018-08-03T00:33:42.216Z,100414.67
2018-08-03T00:36:08.497Z,100419.68
2018-08-03T00:38:34.529Z,100419.39
2018-08-03T00:41:00.501Z,100424.53
2018-08-03T00:43:26.543Z,100422.05
2018-08-03T00:45:52.522Z,100415.80
2018-08-03T00:48:18.547Z,100417.83
2018-08-03T00:50:45.363Z,100424.03
2018-08-03T00:53:11.370Z,100422.14
2018-08-03T00:55:37.372Z,100417.91
2018-08-03T00:58:03.377Z,100414.39
2018-08-03T01:00:29.376Z,100415.90
2018-08-03T01:02:55.427Z,100420.10
2018-08-03T01:05:21.421Z,100419.97
2018-08-03T01:07:47.425Z,100429.21
2018-08-03T01:10:13.398Z,100422.99
2018-08-03T01:12:39.389Z,100419.96
2018-08-03T01:15:05.360Z,100423.81
2018-08-03T01:17:31.444Z,100424.40
2018-08-03T01:19:57.428Z,100409.39
2018-08-03T01:22:23.434Z,100406.25
2018-08-03T01:24:49.432Z,100406.09
2018-08-03T01:27:15.419Z,100408.06
2018-08-03T01:29:41.404Z,100413.09
2018-08-03T01:32:08.285Z,100410.80
2018-08-03T01:34:34.277Z,100411.56
2018-08-03T01:37:00.297Z,100414.39
2018-08-03T01:39:26.335Z,100405.38
2018-08-03T01:41:52.329Z,100401.59
2018-08-03T01:44:18.317Z,100403.16
2018-08-03T01:46:44.272Z,100407.54
2018-08-03T01:49:10.257Z,100406.63
2018-08-03T01:51:36.254Z,100402.55
2018-08-03T01:54:04.623Z,100404.59
2018-08-03T01:56:30.695Z,100392.03
2018-08-03T01:58:56.788Z,100393.91
2018-08-03T02:01:22.766Z,100392.69
2018-08-03T02:03:48.807Z,100396.40
2018-08-03T02:06:14.864Z,100395.70
2018-08-03T02:08:40.847Z,100402.38
2018-08-03T02:11:06.849Z,100400.14
2018-08-03T02:13:32.847Z,100402.87
2018-08-03T02:15:58.895Z,100404.38
2018-08-03T02:18:24.904Z,100407.69
2018-08-03T02:20:51.217Z,100408.27
2018-08-03T02:23:17.216Z,100409.06
2018-08-03T02:25:43.184Z,100407.58
2018-08-03T02:28:09.170Z,100412.17
2018-08-03T02:30:35.178Z,100407.88
2018-08-03T02:33:01.753Z,100408.34
2018-08-03T02:35:27.732Z,100401.81
2018-08-03T02:37:53.744Z,100404.05
2018-08-03T02:40:19.779Z,100408.70
2018-08-03T02:42:45.795Z,100413.80
2018-08-03T02:45:11.831Z,100414.33
2018-08-03T02:47:37.878Z,100415.43
2018-08-03T02:50:03.964Z,100410.23
2018-08-03T02:52:29.962Z,100413.14
2018-08-03T02:54:55.944Z,100409.95
2018-08-03T02:57:21.950Z,100409.80
2018-08-03T02:59:47.929Z,100417.59
2018-08-03T03:02:14.826Z,100418.94
2018-08-03T03:04:40.820Z,100414.88
2018-08-03T03:07:06.864Z,100417.41
2018-08-03T03:09:32.905Z,100420.16
2018-08-03T03:11:59.649Z,100427.75
2018-08-03T03:14:26.884Z,100424.78
2018-08-03T03:16:52.955Z,100420.78
2018-08-03T03:19:19.093Z,100428.66
2018-08-03T03:21:45.195Z,100431.98
2018-08-03T03:24:11.210Z,100428.11
2018-08-03T03:26:37.250Z,100425.89
2018-08-03T03:29:04.582Z,100433.66
2018-08-03T03:31:30.659Z,100430.88
2018-08-03T03:33:56.642Z,100436.20
2018-08-03T03:36:22.676Z,100434.58
2018-08-03T03:38:48.665Z,100430.24
2018-08-03T03:41:14.733Z,100432.62
2018-08-03T03:43:40.705Z,100433.44
2018-08-03T03:46:06.837Z,100429.53
2018-08-03T03:48:32.945Z,100427.89
2018-08-03T03:50:59.002Z,100428.30
2018-08-03T03:53:24.976Z,100433.70
2018-08-03T03:55:51.115Z,100430.34
2018-08-03T03:58:17.154Z,100428.88
2018-08-03T04:00:43.163Z,100440.78
2018-08-03T04:03:09.149Z,100441.12
2018-08-03T04:05:35.164Z,100449.02
2018-08-03T04:08:04.184Z,100445.59
2018-08-03T04:10:30.239Z,100447.39
2018-08-03T04:12:56.280Z,100445.91
2018-08-03T04:15:22.408Z,100449.31
2018-08-03T04:17:48.523Z,100450.06
2018-08-03T04:20:15.491Z,100456.42
2018-08-03T04:22:41.617Z,100454.33
2018-08-03T04:25:07.699Z,100450.55
2018-08-03T04:27:35.653Z,100452.55
2018-08-03T04:30:01.790Z,100458.79
2018-08-03T04:32:29.301Z,100457.55
2018-08-03T04:34:55.458Z,100456.33
2018-08-03T04:37:22.941Z,100464.52
2018-08-03T04:39:49.007Z,100459.06
2018-08-03T04:42:15.158Z,100462.34
2018-08-03T04:44:43.045Z,100460.09
2018-08-03T04:47:09.102Z,100462.96
2018-08-03T04:49:35.189Z,100462.31
2018-08-03T04:52:01.220Z,100469.91
2018-08-03T04:54:27.298Z,100469.25
2018-08-03T04:56:53.336Z,100467.60
2018-08-03T04:59:19.400Z,100468.73
2018-08-03T05:01:45.497Z,100471.03
2018-08-03T05:04:12.339Z,100470.81
2018-08-03T05:06:38.388Z,100467.25
2018-08-03T05:09:04.579Z,100474.91
2018-08-03T05:11:30.853Z,100483.08
2018-08-03T05:13:58.199Z,100481.47
2018-08-03T05:16:27.167Z,100482.02
2018-08-03T05:18:55.410Z,100482.02
2018-08-03T05:24:00.853Z,100483.39
2018-08-03T05:26:26.919Z,100481.94
2018-08-03T05:28:53.833Z,100482.06
2018-08-03T05:31:21.015Z,100492.68
2018-08-03T05:33:51.465Z,100502.61
2018-08-03T05:36:17.680Z,100495.30
2018-08-03T05:38:45.640Z,100506.70
2018-08-03T05:41:11.728Z,100504.84
2018-08-03T05:43:37.697Z,100498.66
2018-08-03T05:46:03.738Z,100502.88
2018-08-03T05:48:29.879Z,100501.34
2018-08-03T05:50:56.741Z,100502.54
2018-08-03T05:58:27.912Z,100501.45
2018-08-03T06:00:53.864Z,100507.50
2018-08-03T06:03:19.816Z,100498.08
2018-08-03T06:05:45.811Z,100492.27
2018-08-03T06:08:12.159Z,100499.17
2018-08-03T06:13:15.669Z,100498.86
2018-08-03T06:15:41.644Z,100506.30
2018-08-03T06:18:07.654Z,100505.73
2018-08-03T06:20:34.185Z,100501.94
2018-08-03T06:23:00.240Z,100500.68
2018-08-03T06:25:26.248Z,100497.58
2018-08-03T06:27:53.190Z,100506.27
2018-08-03T06:30:19.291Z,100502.41
2018-08-03T06:32:45.366Z,100497.33
2018-08-03T06:35:11.435Z,100495.72
2018-08-03T06:37:37.547Z,100497.08
2018-08-03T06:42:35.833Z,100511.95
2018-08-03T06:45:01.934Z,100505.67
2018-08-03T06:47:28.058Z,100504.50
2018-08-03T06:49:57.279Z,100508.05
2018-08-03T06:52:24.297Z,100509.38
2018-08-03T06:54:50.288Z,100502.27
2018-08-03T06:57:16.320Z,100505.91
2018-08-03T06:59:42.393Z,100510.50
2018-08-03T07:02:09.788Z,100507.91
2018-08-03T07:04:36.674Z,100510.76
2018-08-03T07:07:03.239Z,100242.31
2018-08-03T07:09:30.518Z,100512.79
2018-08-03T07:11:56.659Z,100517.41
2018-08-03T07:14:23.699Z,100511.56
2018-08-03T07:16:49.771Z,100515.14
2018-08-03T07:19:15.835Z,100519.60
2018-08-03T07:21:41.843Z,100510.31
2018-08-03T07:24:07.860Z,100508.18
2018-08-03T07:26:33.951Z,100500.73
2018-08-03T07:29:00.007Z,100504.55
2018-08-03T07:31:26.034Z,100494.80
2018-08-03T07:33:53.878Z,100498.23
2018-08-03T07:36:19.897Z,100497.75
2018-08-03T07:38:45.992Z,100494.56
2018-08-03T07:41:11.998Z,100494.70
2018-08-03T07:43:37.985Z,100495.53
2018-08-03T07:46:04.670Z,100502.90
2018-08-03T07:48:30.719Z,100497.53
2018-08-03T07:50:59.714Z,100498.37
2018-08-03T07:53:26.305Z,100494.19
2018-08-03T07:55:52.311Z,100504.19
2018-08-03T07:58:18.634Z,100503.26
2018-08-03T08:00:44.665Z,100503.84
2018-08-03T08:03:10.689Z,100506.58
2018-08-03T08:05:36.679Z,100496.84
2018-08-03T08:08:02.763Z,100497.55
2018-08-03T08:10:28.794Z,100501.09
2018-08-03T08:12:54.892Z,100502.18
2018-08-03T08:15:20.991Z,100503.94
2018-08-03T08:17:47.072Z,100504.09
2018-08-03T08:20:13.119Z,100504.67
2018-08-03T08:22:39.976Z,100495.99
2018-08-03T08:25:07.874Z,100493.40
2018-08-03T08:27:34.547Z,100499.31
2018-08-03T08:30:03.644Z,100498.13
2018-08-03T08:32:30.786Z,100499.91
2018-08-03T08:35:05.345Z,100493.92
2018-08-03T08:37:31.935Z,100498.20
2018-08-03T08:40:00.068Z,100490.46
2018-08-03T08:42:27.723Z,100490.03
2018-08-03T08:44:53.975Z,100489.93
2018-08-03T08:47:21.313Z,100492.42
2018-08-03T08:49:49.070Z,100491.23
2018-08-03T08:54:53.860Z,100481.11
2018-08-03T08:57:19.837Z,100473.14
2018-08-03T08:59:46.957Z,100479.43
2018-08-03T09:02:13.920Z,100481.67
2018-08-03T09:04:39.872Z,100480.52
2018-08-03T09:07:07.343Z,100481.33
2018-08-03T09:09:33.415Z,100474.41
2018-08-03T09:11:59.526Z,100476.56
2018-08-03T09:14:25.733Z,100479.87
2018-08-03T09:16:53.351Z,100466.90
2018-08-03T09:19:19.546Z,100471.80
2018-08-03T09:21:45.589Z,100467.90
2018-08-03T09:24:12.751Z,100463.26
2018-08-03T09:26:39.036Z,100464.56
2018-08-03T09:29:05.282Z,100464.66
2018-08-03T09:31:31.476Z,100457.30
2018-08-03T09:33:57.554Z,100457.65
2018-08-03T09:36:23.676Z,100453.59
2018-08-03T09:38:49.851Z,100454.91
2018-08-03T09:41:15.994Z,100458.48
2018-08-03T09:43:42.016Z,100450.01
2018-08-03T09:46:11.958Z,100450.63
2018-08-03T09:48:38.062Z,100443.84
2018-08-03T09:51:04.729Z,100434.55
2018-08-03T09:53:31.157Z,100433.24
2018-08-03T09:55:58.111Z,100430.88
2018-08-03T09:58:24.141Z,100429.44
2018-08-03T10:00:50.225Z,100429.23
2018-08-03T10:03:16.359Z,100419.94
2018-08-03T10:05:43.227Z,100422.31
2018-08-03T10:08:14.438Z,100423.36
2018-08-03T10:10:40.600Z,100423.15
2018-08-03T10:13:06.911Z,100421.41
2018-08-03T10:15:33.030Z,100416.30
2018-08-03T10:17:59.201Z,100410.23
2018-08-03T10:20:25.338Z,100407.45
2018-08-03T10:22:51.336Z,100404.73
2018-08-03T10:25:17.508Z,100405.33
2018-08-03T10:27:43.692Z,100400.91
2018-08-03T10:30:09.884Z,100397.23
2018-08-03T10:32:35.963Z,100393.08
2018-08-03T10:35:02.182Z,100391.77
2018-08-03T10:37:28.271Z,100391.05
2018-08-03T10:39:54.479Z,100384.56
2018-08-03T10:42:20.590Z,100369.36
2018-08-03T10:44:46.586Z,100383.34
2018-08-03T10:47:12.718Z,100380.00
2018-08-03T10:49:38.848Z,100383.47
2018-08-03T10:52:05.099Z,100378.48
2018-08-03T10:54:31.246Z,100366.08
2018-08-03T10:56:57.353Z,100369.44
2018-08-03T10:59:23.432Z,100372.73
2018-08-03T11:01:50.293Z,100363.93
2018-08-03T11:04:17.494Z,100362.78
2018-08-03T11:06:43.888Z,100359.28
2018-08-03T11:09:09.993Z,100362.06
2018-08-03T11:11:36.145Z,100355.60
2018-08-03T11:14:02.488Z,100361.17
2018-08-03T11:16:28.757Z,100356.78
2018-08-03T11:18:54.809Z,100350.03
2018-08-03T11:21:20.821Z,100345.97
2018-08-03T11:23:46.876Z,100351.88
2018-08-03T11:26:12.937Z,100342.52
2018-08-03T11:31:10.825Z,100339.56
2018-08-03T11:33:36.849Z,100339.91
2018-08-03T11:36:09.316Z,100331.11
2018-08-03T11:38:35.404Z,100330.27
2018-08-03T11:41:05.360Z,100329.09
2018-08-03T11:43:31.454Z,100331.55
2018-08-03T11:45:57.497Z,100326.83
2018-08-03T11:48:23.911Z,100318.68
2018-08-03T11:50:50.428Z,100321.30
2018-08-03T11:53:16.561Z,100318.52
2018-08-03T11:55:42.615Z,100315.30
2018-08-03T11:58:08.665Z,100310.07
2018-08-03T12:00:34.836Z,100311.92
2018-08-03T12:03:00.993Z,100305.09
2018-08-03T12:05:27.906Z,100303.78
2018-08-03T12:07:54.166Z,100297.92
2018-08-03T12:10:20.234Z,100295.55
2018-08-03T12:12:46.622Z,100290.31
2018-08-03T12:15:12.728Z,100297.53
2018-08-03T12:17:38.828Z,100302.20
2018-08-03T12:20:05.736Z,100298.03
2018-08-03T12:22:31.805Z,100294.83
2018-08-03T12:24:57.865Z,100289.34
2018-08-03T12:27:24.224Z,100288.85
2018-08-03T12:29:50.257Z,100289.30
2018-08-03T12:32:16.370Z,100280.48
2018-08-03T12:34:42.589Z,100279.16
2018-08-03T12:37:08.756Z,100275.31
2018-08-03T12:39:34.813Z,100272.09
2018-08-03T12:42:00.953Z,100268.23
2018-08-03T12:44:27.326Z,100264.92
2018-08-03T12:46:53.375Z,100269.69
2018-08-03T12:49:19.554Z,100262.55
2018-08-03T12:51:45.728Z,100259.46
2018-08-03T12:54:11.808Z,100260.40
2018-08-03T12:56:37.870Z,100251.48
2018-08-03T12:59:03.882Z,100249.18
2018-08-03T13:01:30.085Z,100243.75
2018-08-03T13:04:02.748Z,100245.29
2018-08-03T13:06:32.899Z,100243.30
2018-08-03T13:08:58.981Z,100231.73
2018-08-03T13:11:25.029Z,100232.45
2018-08-03T13:13:51.212Z,100232.66
2018-08-03T13:16:17.264Z,100235.80
2018-08-03T13:18:43.518Z,100229.72
2018-08-03T13:21:09.745Z,100227.23
2018-08-03T13:23:36.026Z,100225.00
2018-08-03T13:26:02.059Z,100219.04
2018-08-03T13:28:28.405Z,100217.00
2018-08-03T13:30:54.411Z,100218.20
2018-08-03T13:33:20.751Z,100219.12
2018-08-03T13:35:46.864Z,100210.78
2018-08-03T13:38:12.936Z,100209.41
2018-08-03T13:40:38.928Z,100208.61
2018-08-03T13:43:05.009Z,100206.20
2018-08-03T13:45:31.010Z,100202.73
2018-08-03T13:47:57.058Z,100205.22
2018-08-03T13:50:23.229Z,100201.67
2018-08-03T13:52:49.347Z,100199.80
2018-08-03T13:55:15.371Z,100195.41
2018-08-03T13:57:41.502Z,100203.13
2018-08-03T14:00:07.414Z,100203.05
2018-08-03T14:02:33.475Z,100198.47
2018-08-03T14:04:59.429Z,100200.70
2018-08-03T14:07:25.416Z,100198.34
2018-08-03T14:09:51.625Z,100189.65
2018-08-03T14:12:17.667Z,100192.70
2018-08-03T14:14:43.648Z,100193.11
2018-08-03T14:17:09.807Z,100185.59
2018-08-03T14:19:35.920Z,100179.36
2018-08-03T14:22:03.525Z,100173.81
2018-08-03T14:24:29.656Z,100163.78
2018-08-03T14:26:55.625Z,100164.22
2018-08-03T14:29:21.608Z,100165.27
2018-08-03T14:31:47.732Z,100160.36
2018-08-03T14:34:13.717Z,100158.11
2018-08-03T14:36:41.169Z,100152.51
2018-08-03T14:39:07.159Z,100143.27
2018-08-03T14:41:33.212Z,100150.16
2018-08-03T14:43:59.306Z,100149.89
2018-08-03T14:46:25.401Z,100145.02
2018-08-03T14:48:51.510Z,100142.50
2018-08-03T15:13:59.048Z,100117.72
2018-08-03T15:16:25.125Z,100112.48
2018-08-03T15:18:51.127Z,100120.10
2018-08-03T15:21:17.138Z,100121.20
2018-08-03T15:23:43.246Z,100118.80
2018-08-03T15:26:09.228Z,100115.44
2018-08-03T15:28:35.334Z,100115.04
2018-08-03T15:31:01.328Z,100117.77
2018-08-03T15:33:27.352Z,100115.68
2018-08-03T15:35:53.346Z,100115.01
2018-08-03T15:38:19.509Z,100111.35
2018-08-03T15:40:45.594Z,100102.99
2018-08-03T15:43:11.683Z,100101.78
2018-08-03T15:45:37.691Z,100101.28
2018-08-03T15:48:03.761Z,100104.97
2018-08-03T15:50:29.829Z,100105.17
2018-08-03T15:52:55.931Z,100093.26
2018-08-03T15:55:22.048Z,100096.58
2018-08-03T15:57:48.021Z,100094.66
2018-08-03T16:00:14.056Z,100089.90
2018-08-03T16:02:40.074Z,100094.66
2018-08-03T16:05:06.162Z,100090.73
2018-08-03T16:07:32.258Z,100088.02
2018-08-03T16:09:58.409Z,100081.14
2018-08-03T16:12:24.781Z,100087.41
2018-08-03T16:14:50.813Z,100090.06
2018-08-03T16:17:16.893Z,100080.87
2018-08-03T16:19:42.947Z,100084.73
2018-08-03T16:22:08.984Z,100092.66
2018-08-03T16:24:35.047Z,100080.61
2018-08-03T16:27:01.099Z,100084.80
2018-08-03T16:29:27.184Z,100081.52
2018-08-03T16:31:53.230Z,100077.31
2018-08-03T16:34:19.273Z,100083.86
2018-08-03T16:36:45.218Z,100079.03
2018-08-03T16:39:11.216Z,100076.61
2018-08-03T16:41:37.405Z,100078.19
2018-08-03T16:44:03.400Z,100083.76
2018-08-03T16:46:29.580Z,100080.13
2018-08-03T16:48:55.603Z,100076.41
2018-08-03T16:51:21.745Z,100079.16
2018-08-03T16:53:47.856Z,100079.44
2018-08-03T16:56:13.953Z,100081.92
2018-08-03T16:58:39.952Z,100085.23
2018-08-03T17:01:05.946Z,100082.48
2018-08-03T17:03:31.912Z,100080.13
2018-08-03T17:05:57.933Z,100075.47
2018-08-03T17:08:24.116Z,100080.70
2018-08-03T17:10:50.165Z,100074.27
2018-08-03T17:13:16.378Z,100077.92
2018-08-03T17:15:42.471Z,100076.01
2018-08-03T17:18:08.781Z,100073.72
2018-08-03T17:20:34.949Z,99966.40
2018-08-03T17:23:00.926Z,100075.17
2018-08-03T17:25:26.891Z,100072.35
2018-08-03T17:27:53.088Z,100068.48
2018-08-03T17:30:19.170Z,100071.07
2018-08-03T17:32:45.328Z,100068.05
2018-08-03T17:40:15.182Z,100065.77
2018-08-03T17:42:41.322Z,100062.44
2018-08-03T17:45:07.697Z,100060.86
2018-08-03T17:47:34.064Z,100066.09
2018-08-03T17:50:05.454Z,100066.66
2018-08-03T17:52:32.329Z,100068.81
2018-08-03T17:54:58.535Z,100070.45
2018-08-03T17:57:25.737Z,100069.85
2018-08-03T17:59:52.146Z,100075.36
2018-08-03T18:02:19.477Z,100071.56
2018-08-03T18:04:47.431Z,100069.69
2018-08-03T18:07:16.400Z,100073.42
2018-08-03T18:09:45.322Z,100079.12
2018-08-03T18:12:11.670Z,100082.45
2018-08-03T18:14:44.194Z,100079.12
2018-08-03T18:17:10.237Z,100082.08
2018-08-03T18:19:36.517Z,100080.44
2018-08-03T18:22:02.629Z,100088.29
2018-08-03T18:24:29.438Z,100081.74
2018-08-03T18:26:55.720Z,100082.78
2018-08-03T18:31:54.245Z,100084.80
2018-08-03T18:34:20.477Z,100083.95
2018-08-03T18:36:47.018Z,100088.72
2018-08-03T18:39:13.183Z,100089.53
2018-08-03T18:41:39.313Z,100090.37
2018-08-03T18:44:06.633Z,100090.50
2018-08-03T18:46:34.609Z,100095.27
2018-08-03T18:49:00.848Z,100094.43
2018-08-03T18:51:27.042Z,100093.59
2018-08-03T18:53:53.394Z,100099.09
2018-08-03T18:56:19.877Z,100103.66
2018-08-03T18:58:45.992Z,100109.14
2018-08-03T19:03:44.706Z,100112.59
2018-08-03T19:06:12.339Z,100109.20
2018-08-03T19:29:42.099Z,100105.41
2018-08-03T19:32:14.702Z,100109.05
2018-08-03T19:44:49.503Z,100105.30
2018-08-03T19:47:20.478Z,100110.95
2018-08-03T20:10:10.843Z,100107.69
2018-08-03T20:15:14.898Z,100109.39
2018-08-03T20:17:48.979Z,100113.41
2018-08-03T20:25:29.116Z,100110.67
2018-08-03T20:27:57.994Z,100106.58
2018-08-03T20:30:27.178Z,100108.64
2018-08-03T20:32:57.415Z,100111.81
2018-08-03T20:35:31.167Z,100109.21
2018-08-03T20:37:59.703Z,100116.27
2018-08-03T20:40:26.116Z,100115.98
2018-08-03T20:42:53.098Z,100123.30
2018-08-03T20:45:19.202Z,100114.71
2018-08-03T20:47:45.418Z,100113.66
2018-08-03T20:50:11.772Z,100114.00
2018-08-03T20:52:38.280Z,100112.08
2018-08-03T20:55:11.577Z,100108.25
2018-08-03T20:57:37.835Z,100109.27
2018-08-03T21:00:04.671Z,100121.17
2018-08-03T21:02:36.674Z,100128.51
2018-08-03T21:05:02.964Z,100118.34
2018-08-03T21:07:30.234Z,100126.48
2018-08-03T21:09:57.589Z,100134.53
2018-08-03T21:12:23.851Z,100131.12
2018-08-03T21:14:50.171Z,100134.89
2018-08-03T21:22:20.172Z,100134.66
2018-08-03T21:24:46.580Z,100133.55
2018-08-03T21:27:12.919Z,100132.91
2018-08-03T21:29:40.430Z,100139.20
2018-08-03T21:32:09.092Z,100133.95
2018-08-03T21:34:35.790Z,100134.45
2018-08-03T21:37:02.592Z,100127.02
2018-08-03T21:39:29.822Z,100127.59
2018-08-03T21:41:57.366Z,100140.71
2018-08-03T21:44:23.824Z,100140.98
2018-08-03T21:46:50.784Z,100134.97
2018-08-03T21:49:17.182Z,100131.78
2018-08-03T21:51:44.290Z,100134.96
2018-08-03T21:54:10.770Z,100131.92
2018-08-03T21:56:38.954Z,100129.32
2018-08-03T21:59:05.456Z,100136.75
2018-08-03T22:01:33.366Z,100133.66
2018-08-03T22:04:00.236Z,100135.02
2018-08-03T22:06:26.590Z,100133.17
2018-08-03T22:08:52.845Z,100131.56
2018-08-03T22:11:19.688Z,100128.77
2018-08-03T22:13:46.314Z,100132.52
2018-08-03T22:16:15.020Z,100123.73
2018-08-03T22:18:42.571Z,100131.69
2018-08-03T22:21:08.969Z,100078.68
2018-08-03T22:23:35.576Z,100131.29
2018-08-03T22:26:02.511Z,100132.88
2018-08-03T22:28:30.950Z,100137.17
2018-08-03T22:31:00.302Z,100134.80
2018-08-03T22:33:27.460Z,100129.58
2018-08-03T22:35:54.414Z,100132.64
2018-08-03T22:38:21.780Z,100127.27
2018-08-03T22:43:21.574Z,100125.27
2018-08-03T22:45:49.957Z,100125.86
2018-08-03T22:48:17.387Z,100131.06
2018-08-03T22:50:45.840Z,100124.91
2018-08-03T22:53:13.016Z,100127.58
2018-08-03T22:55:42.953Z,100126.38
2018-08-03T22:58:13.016Z,100124.70
2018-08-03T23:00:39.269Z,100066.75
2018-08-03T23:10:49.273Z,100120.38
2018-08-03T23:13:17.019Z,100123.08
2018-08-03T23:15:49.168Z,100118.77
2018-08-03T23:18:15.888Z,100122.06
2018-08-03T23:20:45.222Z,100118.80
2018-08-03T23:23:13.660Z,100113.95
2018-08-03T23:25:40.600Z,100111.70
2018-08-03T23:28:08.237Z,100109.23
2018-08-03T23:30:37.834Z,100104.03
2018-08-03T23:33:05.425Z,100108.47
2018-08-03T23:35:32.379Z,100117.59
2018-08-03T23:38:00.399Z,100115.63
2018-08-03T23:40:28.675Z,100110.92
2018-08-03T23:42:56.994Z,100118.77
2018-08-03T23:45:25.131Z,100117.77
2018-08-03T23:47:52.622Z,100119.59
2018-08-03T23:50:24.458Z,100117.25
2018-08-03T23:52:51.932Z,100114.76
2018-08-03T23:55:20.612Z,100106.20
2018-08-03T23:57:48.665Z,100110.02
